createdAt,value
2022-10-01T00:00:29.435Z,100310.38
2022-10-01T00:01:01.540Z,100309.19
2022-10-01T00:01:34.101Z,100317.78
2022-10-01T00:02:07.327Z,100312.31
2022-10-01T00:02:39.815Z,100313.09
2022-10-01T00:03:11.255Z,100310.75
2022-10-01T00:03:43.334Z,100318.16
2022-10-01T00:04:14.630Z,100312.69
2022-10-01T00:04:46.002Z,100310.38
2022-10-01T00:05:17.637Z,100309.97
2022-10-01T00:06:10.297Z,100300.25
2022-10-01T00:06:41.640Z,100304.13
2022-10-01T00:07:15.099Z,100295.56
2022-10-01T00:07:47.242Z,100296.72
2022-10-01T00:08:18.556Z,100292.84
2022-10-01T00:08:50.649Z,100288.94
2022-10-01T00:09:21.972Z,100290.13
2022-10-01T00:09:53.272Z,100287.78
2022-10-01T00:10:25.492Z,100279.19
2022-10-01T00:10:58.059Z,100294.78
2022-10-01T00:11:29.806Z,100278.03
2022-10-01T00:12:01.278Z,100279.63
2022-10-01T00:12:32.883Z,100281.19
2022-10-01T00:13:04.247Z,100273.38
2022-10-01T00:13:36.387Z,100264.44
2022-10-01T00:14:08.306Z,100271.44
2022-10-01T00:14:39.671Z,100273.78
2022-10-01T00:15:13.576Z,100267.16
2022-10-01T00:15:45.089Z,100275.72
2022-10-01T00:16:20.179Z,100267.16
2022-10-01T00:16:51.717Z,100272.59
2022-10-01T00:17:23.127Z,100270.28
2022-10-01T00:17:54.688Z,100270.28
2022-10-01T00:18:26.071Z,100271.03
2022-10-01T00:18:57.989Z,100267.56
2022-10-01T00:19:29.463Z,100273.38
2022-10-01T00:20:01.084Z,100272.59
2022-10-01T00:20:32.397Z,100269.09
2022-10-01T00:21:18.100Z,100271.44
2022-10-01T00:21:49.663Z,100266.00
2022-10-01T00:22:21.040Z,100255.88
2022-10-01T00:22:52.814Z,100266.78
2022-10-01T00:23:24.129Z,100255.88
2022-10-01T00:24:04.656Z,100261.31
2022-10-01T00:24:37.601Z,100250.81
2022-10-01T00:25:09.069Z,100248.84
2022-10-01T00:25:41.064Z,100258.97
2022-10-01T00:26:25.443Z,100252.34
2022-10-01T00:26:57.766Z,100245.34
2022-10-01T00:27:29.859Z,100237.16
2022-10-01T00:28:01.582Z,100244.97
2022-10-01T00:28:32.915Z,100243.41
2022-10-01T00:29:07.572Z,100238.72
2022-10-01T00:29:40.621Z,100237.94
2022-10-01T00:30:12.386Z,100242.63
2022-10-01T00:30:48.163Z,100237.16
2022-10-01T00:31:19.579Z,100239.50
2022-10-01T00:31:51.056Z,100233.28
2022-10-01T00:32:22.991Z,100232.50
2022-10-01T00:32:54.996Z,100237.16
2022-10-01T00:33:26.381Z,100229.78
2022-10-01T00:34:02.540Z,100229.78
2022-10-01T00:34:33.865Z,100226.66
2022-10-01T00:35:09.407Z,100226.25
2022-10-01T00:35:40.732Z,100219.25
2022-10-01T00:36:12.109Z,100214.97
2022-10-01T00:36:43.488Z,100221.59
2022-10-01T00:37:15.501Z,100209.13
2022-10-01T00:37:49.182Z,100213.41
2022-10-01T00:38:20.577Z,100207.97
2022-10-01T00:38:52.001Z,100206.00
2022-10-01T00:39:23.689Z,100206.00
2022-10-01T00:39:55.140Z,100202.13
2022-10-01T00:40:26.545Z,100202.91
2022-10-01T00:40:58.502Z,100209.91
2022-10-01T00:41:33.164Z,100196.66
2022-10-01T00:42:20.493Z,100188.09
2022-10-01T00:42:51.838Z,100193.56
2022-10-01T00:43:29.250Z,100188.50
2022-10-01T00:44:32.322Z,100177.59
2022-10-01T00:45:04.016Z,100179.53
2022-10-01T00:45:35.963Z,100173.31
2022-10-01T00:46:15.660Z,100177.59
2022-10-01T00:46:47.163Z,100167.84
2022-10-01T00:47:37.085Z,100174.84
2022-10-01T00:48:08.407Z,100174.09
2022-10-01T00:48:47.935Z,100173.31
2022-10-01T00:49:26.692Z,100169.78
2022-10-01T00:50:10.492Z,100163.97
2022-10-01T00:50:42.111Z,100162.41
2022-10-01T00:51:13.957Z,100156.94
2022-10-01T00:51:52.311Z,100159.28
2022-10-01T00:52:28.924Z,100158.50
2022-10-01T00:53:04.876Z,100162.78
2022-10-01T00:53:37.752Z,100153.84
2022-10-01T00:54:13.641Z,100153.84
2022-10-01T00:54:50.721Z,100149.94
2022-10-01T00:55:37.654Z,100155.78
2022-10-01T00:56:09.068Z,100140.59
2022-10-01T00:56:42.956Z,100142.16
2022-10-01T00:57:18.617Z,100142.94
2022-10-01T00:57:50.757Z,100137.88
2022-10-01T00:58:24.073Z,100134.38
2022-10-01T00:58:55.983Z,100137.09
2022-10-01T00:59:28.901Z,100148.00
2022-10-01T01:00:04.766Z,100136.69
2022-10-01T01:00:37.830Z,100149.16
2022-10-01T01:01:10.192Z,100144.09
2022-10-01T01:01:42.039Z,100155.38
2022-10-01T01:02:13.490Z,100145.66
2022-10-01T01:02:44.980Z,100153.44
2022-10-01T01:03:16.895Z,100139.03
2022-10-01T01:03:48.615Z,100146.81
2022-10-01T01:04:20.162Z,100141.00
2022-10-01T01:04:51.519Z,100135.91
2022-10-01T01:05:23.130Z,100143.72
2022-10-01T01:05:54.501Z,100137.09
2022-10-01T01:06:25.873Z,100140.22
2022-10-01T01:06:59.890Z,100137.47
2022-10-01T01:07:33.615Z,100137.47
2022-10-01T01:08:06.097Z,100137.88
2022-10-01T01:08:37.559Z,100141.38
2022-10-01T01:09:09.181Z,100138.66
2022-10-01T01:09:48.223Z,100138.25
2022-10-01T01:10:30.072Z,100129.31
2022-10-01T01:11:16.117Z,100138.66
2022-10-01T01:11:58.356Z,100134.38
2022-10-01T01:12:45.248Z,100137.88
2022-10-01T01:13:37.940Z,100138.25
2022-10-01T01:14:14.470Z,100135.16
2022-10-01T01:15:21.544Z,100132.03
2022-10-01T01:16:06.098Z,100137.47
2022-10-01T01:16:47.265Z,100142.94
2022-10-01T01:17:39.459Z,100148.38
2022-10-01T01:18:18.900Z,100137.47
2022-10-01T01:18:56.771Z,100148.38
2022-10-01T01:19:52.544Z,100144.47
2022-10-01T01:20:45.365Z,100132.03
2022-10-01T01:21:24.547Z,100130.84
2022-10-01T01:22:02.977Z,100127.34
2022-10-01T01:22:39.127Z,100127.34
2022-10-01T01:23:16.289Z,100121.13
2022-10-01T01:24:13.057Z,100106.72
2022-10-01T01:24:56.107Z,100099.31
2022-10-01T01:25:40.879Z,100099.72
2022-10-01T01:26:31.529Z,100103.22
2022-10-01T01:27:29.396Z,100102.03
2022-10-01T01:28:18.943Z,100105.94
2022-10-01T01:29:01.136Z,100098.94
2022-10-01T01:29:50.047Z,100091.13
2022-10-01T01:30:21.438Z,100082.19
2022-10-01T01:30:56.897Z,100083.34
2022-10-01T01:31:36.223Z,100084.13
2022-10-01T01:32:18.205Z,100088.03
2022-10-01T01:33:12.804Z,100085.31
2022-10-01T01:33:47.971Z,100087.25
2022-10-01T01:34:24.326Z,100063.88
2022-10-01T01:35:02.096Z,100070.13
2022-10-01T01:35:39.345Z,100068.94
2022-10-01T01:36:16.251Z,100067.00
2022-10-01T01:36:58.505Z,100066.59
2022-10-01T01:37:37.901Z,100071.28
2022-10-01T01:38:14.458Z,100054.16
2022-10-01T01:38:54.972Z,100055.31
2022-10-01T01:39:29.819Z,100060.78
2022-10-01T01:40:03.558Z,100058.44
2022-10-01T01:40:37.793Z,100063.50
2022-10-01T01:41:11.493Z,100053.00
2022-10-01T01:41:49.939Z,100042.47
2022-10-01T01:42:36.704Z,100056.09
2022-10-01T01:43:13.956Z,100067.78
2022-10-01T01:43:49.538Z,100062.72
2022-10-01T01:44:25.723Z,100049.50
2022-10-01T01:45:00.908Z,100048.69
2022-10-01T01:45:34.259Z,100049.09
2022-10-01T01:46:10.296Z,100044.41
2022-10-01T01:46:46.172Z,100041.31
2022-10-01T01:47:20.184Z,100052.19
2022-10-01T01:47:57.680Z,100054.53
2022-10-01T01:48:31.084Z,100063.88
2022-10-01T01:49:05.210Z,100059.22
2022-10-01T01:49:38.662Z,100056.09
2022-10-01T01:50:13.718Z,100045.97
2022-10-01T01:50:52.492Z,100041.69
2022-10-01T01:51:41.097Z,100051.41
2022-10-01T01:52:15.909Z,100047.13
2022-10-01T01:52:47.440Z,100051.41
2022-10-01T01:53:20.140Z,100044.41
2022-10-01T01:53:51.929Z,100042.84
2022-10-01T01:54:23.291Z,100047.91
2022-10-01T01:54:55.394Z,100032.72
2022-10-01T01:55:29.933Z,100037.41
2022-10-01T01:56:01.962Z,100033.13
2022-10-01T01:56:34.419Z,100036.22
2022-10-01T01:57:06.777Z,100028.44
2022-10-01T01:57:43.506Z,100041.28
2022-10-01T01:58:16.954Z,100037.78
2022-10-01T01:58:49.263Z,100043.25
2022-10-01T01:59:20.720Z,100032.34
2022-10-01T01:59:54.170Z,100028.44
2022-10-01T02:00:25.612Z,100035.06
2022-10-01T02:00:56.955Z,100033.13
2022-10-01T02:01:41.958Z,100039.75
2022-10-01T02:02:25.625Z,100035.84
2022-10-01T02:02:57.935Z,100037.00
2022-10-01T02:03:30.700Z,100034.28
2022-10-01T02:04:43.631Z,100042.47
2022-10-01T02:05:19.935Z,100038.19
2022-10-01T02:06:19.010Z,100041.28
2022-10-01T02:07:03.212Z,100047.91
2022-10-01T02:08:15.339Z,100042.47
2022-10-01T02:08:57.815Z,100039.34
2022-10-01T02:09:41.746Z,100045.19
2022-10-01T02:10:45.088Z,100052.19
2022-10-01T02:11:23.149Z,100047.91
2022-10-01T02:12:30.208Z,100054.91
2022-10-01T02:13:13.757Z,100049.06
2022-10-01T02:13:45.031Z,100055.31
2022-10-01T02:14:35.566Z,100036.22
2022-10-01T02:15:26.032Z,100053.34
2022-10-01T02:16:05.005Z,100047.13
2022-10-01T02:17:01.339Z,100038.94
2022-10-01T02:17:50.602Z,100045.19
2022-10-01T02:18:29.464Z,100044.78
2022-10-01T02:19:19.688Z,100048.69
2022-10-01T02:20:02.179Z,100044.78
2022-10-01T02:20:42.290Z,100045.19
2022-10-01T02:21:21.491Z,100056.47
2022-10-01T02:22:00.359Z,100026.47
2022-10-01T02:22:42.204Z,100045.97
2022-10-01T02:23:18.060Z,100044.41
2022-10-01T02:23:59.077Z,100047.50
2022-10-01T02:24:43.274Z,100037.78
2022-10-01T02:25:18.526Z,100037.78
2022-10-01T02:25:55.312Z,100040.88
2022-10-01T02:26:29.728Z,100042.06
2022-10-01T02:27:06.245Z,100042.06
2022-10-01T02:27:50.929Z,100038.16
2022-10-01T02:28:23.952Z,100040.13
2022-10-01T02:29:00.768Z,100037.38
2022-10-01T02:29:34.627Z,100033.50
2022-10-01T02:30:09.505Z,100043.63
2022-10-01T02:30:44.781Z,100044.78
2022-10-01T02:31:18.472Z,100040.13
2022-10-01T02:31:53.587Z,100047.13
2022-10-01T02:32:26.232Z,100046.34
2022-10-01T02:32:59.823Z,100037.00
2022-10-01T02:33:35.500Z,100042.44
2022-10-01T02:34:12.481Z,100042.03
2022-10-01T02:34:45.928Z,100035.81
2022-10-01T02:35:20.119Z,100044.34
2022-10-01T02:35:53.759Z,100038.91
2022-10-01T02:36:27.293Z,100034.22
2022-10-01T02:37:01.500Z,100036.94
2022-10-01T02:37:36.565Z,100048.25
2022-10-01T02:38:09.467Z,100041.63
2022-10-01T02:38:43.353Z,100046.28
2022-10-01T02:39:17.357Z,100046.28
2022-10-01T02:39:52.188Z,100045.13
2022-10-01T02:40:28.268Z,100046.28
2022-10-01T02:41:05.003Z,100034.59
2022-10-01T02:41:36.968Z,100036.56
2022-10-01T02:42:14.020Z,100043.56
2022-10-01T02:42:51.272Z,100029.53
2022-10-01T02:43:29.760Z,100034.22
2022-10-01T02:44:14.981Z,100036.94
2022-10-01T02:44:48.391Z,100034.22
2022-10-01T02:45:23.478Z,100035.78
2022-10-01T02:46:00.030Z,100029.16
2022-10-01T02:46:42.245Z,100045.50
2022-10-01T02:47:37.765Z,100042.00
2022-10-01T02:48:12.213Z,100040.06
2022-10-01T02:48:44.131Z,100039.28
2022-10-01T02:49:15.858Z,100028.38
2022-10-01T02:49:48.392Z,100022.13
2022-10-01T02:50:21.547Z,100022.53
2022-10-01T02:51:01.612Z,100018.25
2022-10-01T02:51:43.338Z,100022.13
2022-10-01T02:52:41.644Z,100022.91
2022-10-01T02:53:21.292Z,100031.50
2022-10-01T02:54:00.092Z,100041.22
2022-10-01T02:54:38.351Z,100040.06
2022-10-01T02:55:32.137Z,100042.78
2022-10-01T02:56:05.625Z,100044.34
2022-10-01T02:56:56.868Z,100037.31
2022-10-01T02:57:28.844Z,100038.09
2022-10-01T02:58:00.170Z,100027.97
2022-10-01T02:58:31.771Z,100037.31
2022-10-01T02:59:07.464Z,100026.03
2022-10-01T02:59:38.826Z,100019.41
2022-10-01T03:00:13.884Z,100032.25
2022-10-01T03:00:45.226Z,100034.97
2022-10-01T03:01:16.695Z,100030.69
2022-10-01T03:01:48.296Z,100026.81
2022-10-01T03:02:20.979Z,100033.44
2022-10-01T03:02:52.556Z,100038.09
2022-10-01T03:03:26.005Z,100040.44
2022-10-01T03:03:57.314Z,100035.75
2022-10-01T03:04:28.675Z,100027.97
2022-10-01T03:05:00.449Z,100044.72
2022-10-01T03:05:31.765Z,100038.88
2022-10-01T03:06:03.198Z,100035.38
2022-10-01T03:06:36.081Z,100028.34
2022-10-01T03:07:07.575Z,100027.19
2022-10-01T03:07:40.714Z,100026.78
2022-10-01T03:08:12.064Z,100019.00
2022-10-01T03:08:43.483Z,100026.00
2022-10-01T03:09:14.788Z,100022.88
2022-10-01T03:09:46.171Z,100020.94
2022-10-01T03:10:17.652Z,100022.13
2022-10-01T03:10:50.371Z,100025.22
2022-10-01T03:11:21.885Z,100012.75
2022-10-01T03:11:53.182Z,100020.53
2022-10-01T03:12:24.800Z,100022.50
2022-10-01T03:12:56.410Z,100006.13
2022-10-01T03:13:27.705Z,100018.22
2022-10-01T03:13:59.264Z,100010.81
2022-10-01T03:14:32.297Z,100013.13
2022-10-01T03:15:04.777Z,99997.97
2022-10-01T03:15:36.187Z,100003.41
2022-10-01T03:16:07.784Z,100008.84
2022-10-01T03:16:39.152Z,100011.97
2022-10-01T03:17:11.033Z,100001.47
2022-10-01T03:17:42.573Z,100003.38
2022-10-01T03:18:13.863Z,100001.41
2022-10-01T03:18:45.151Z,99998.34
2022-10-01T03:19:16.501Z,99998.69
2022-10-01T03:19:48.154Z,100003.38
2022-10-01T03:20:19.686Z,100004.97
2022-10-01T03:20:51.182Z,100001.03
2022-10-01T03:21:22.681Z,99982.31
2022-10-01T03:21:56.338Z,100015.06
2022-10-01T03:22:27.934Z,99998.69
2022-10-01T03:22:59.234Z,100000.25
2022-10-01T03:23:30.558Z,99997.16
2022-10-01T03:24:02.012Z,100001.78
2022-10-01T03:24:33.824Z,99994.00
2022-10-01T03:25:05.529Z,99996.34
2022-10-01T03:25:37.194Z,99990.50
2022-10-01T03:26:08.641Z,99989.72
2022-10-01T03:26:41.415Z,99995.16
2022-10-01T03:27:12.751Z,99999.44
2022-10-01T03:27:44.456Z,99990.50
2022-10-01T03:28:16.058Z,99993.22
2022-10-01T03:28:47.416Z,99986.22
2022-10-01T03:29:18.717Z,99993.19
2022-10-01T03:29:50.400Z,99997.09
2022-10-01T03:30:22.103Z,99983.88
2022-10-01T03:31:04.640Z,99997.47
2022-10-01T03:31:37.641Z,99995.53
2022-10-01T03:32:09.361Z,99993.59
2022-10-01T03:32:40.911Z,99983.09
2022-10-01T03:33:12.261Z,99993.19
2022-10-01T03:33:43.670Z,99992.03
2022-10-01T03:34:15.007Z,99990.47
2022-10-01T03:34:46.384Z,99988.91
2022-10-01T03:35:18.294Z,99979.94
2022-10-01T03:35:49.605Z,99983.06
2022-10-01T03:36:20.977Z,99976.44
2022-10-01T03:36:52.699Z,99973.72
2022-10-01T03:37:24.474Z,99993.19
2022-10-01T03:37:55.897Z,99990.06
2022-10-01T03:38:27.453Z,99992.78
2022-10-01T03:38:59.068Z,99978.38
2022-10-01T03:39:30.603Z,99983.06
2022-10-01T03:40:02.281Z,99981.09
2022-10-01T03:40:37.779Z,99986.56
2022-10-01T03:41:09.140Z,99980.69
2022-10-01T03:41:40.616Z,99979.53
2022-10-01T03:42:11.987Z,99974.88
2022-10-01T03:42:43.496Z,99984.22
2022-10-01T03:43:14.805Z,99985.78
2022-10-01T03:43:46.145Z,99977.59
2022-10-01T03:44:17.717Z,99976.81
2022-10-01T03:44:49.091Z,99987.72
2022-10-01T03:45:20.427Z,99980.69
2022-10-01T03:45:51.832Z,99977.56
2022-10-01T03:46:23.238Z,99984.59
2022-10-01T03:46:55.026Z,99987.31
2022-10-01T03:47:26.333Z,99979.16
2022-10-01T03:47:57.644Z,99981.09
2022-10-01T03:48:29.671Z,99988.88
2022-10-01T03:49:01.200Z,99987.72
2022-10-01T03:49:33.756Z,99979.91
2022-10-01T03:50:05.651Z,99988.88
2022-10-01T03:50:36.973Z,99974.47
2022-10-01T03:51:08.313Z,99986.91
2022-10-01T03:51:40.153Z,99984.19
2022-10-01T03:52:11.470Z,99988.09
2022-10-01T03:52:44.841Z,99991.19
2022-10-01T03:53:16.518Z,99988.47
2022-10-01T03:53:47.950Z,99993.50
2022-10-01T03:54:20.238Z,99991.94
2022-10-01T03:54:51.557Z,99994.28
2022-10-01T03:55:24.232Z,99985.75
2022-10-01T03:55:55.658Z,99991.94
2022-10-01T03:56:27.186Z,99985.69
2022-10-01T03:56:59.270Z,99987.66
2022-10-01T03:57:30.580Z,99990.75
2022-10-01T03:58:02.171Z,99988.41
2022-10-01T03:58:33.992Z,99995.84
2022-10-01T03:59:05.333Z,99984.13
2022-10-01T03:59:36.681Z,99996.97
2022-10-01T04:00:09.635Z,99992.69
2022-10-01T04:00:41.620Z,99982.94
2022-10-01T04:01:13.070Z,99989.97
2022-10-01T04:01:44.456Z,99989.56
2022-10-01T04:02:15.897Z,99996.97
2022-10-01T04:02:47.374Z,99991.13
2022-10-01T04:03:18.885Z,99995.78
2022-10-01T04:03:50.240Z,99995.41
2022-10-01T04:04:21.618Z,99993.84
2022-10-01T04:04:52.976Z,99991.91
2022-10-01T04:05:25.699Z,99999.28
2022-10-01T04:05:57.300Z,99995.78
2022-10-01T04:06:28.598Z,99998.91
2022-10-01T04:06:59.912Z,99997.75
2022-10-01T04:07:31.213Z,99994.63
2022-10-01T04:08:02.739Z,100005.53
2022-10-01T04:08:34.049Z,99997.34
2022-10-01T04:09:05.369Z,100013.31
2022-10-01T04:09:37.497Z,99997.34
2022-10-01T04:10:09.276Z,99997.72
2022-10-01T04:10:41.482Z,100004.34
2022-10-01T04:11:12.869Z,99993.06
2022-10-01T04:11:44.400Z,100005.91
2022-10-01T04:12:15.738Z,99997.72
2022-10-01T04:12:47.121Z,99992.25
2022-10-01T04:13:19.076Z,100002.41
2022-10-01T04:13:50.752Z,100000.81
2022-10-01T04:14:22.113Z,100009.03
2022-10-01T04:14:53.429Z,99992.66
2022-10-01T04:15:25.281Z,99998.09
2022-10-01T04:15:56.716Z,100003.19
2022-10-01T04:16:28.284Z,100005.50
2022-10-01T04:17:00.234Z,100005.13
2022-10-01T04:17:32.036Z,99997.72
2022-10-01T04:18:05.634Z,100002.00
2022-10-01T04:18:36.979Z,99994.59
2022-10-01T04:19:08.311Z,100005.50
2022-10-01T04:19:39.642Z,99996.94
2022-10-01T04:20:11.015Z,99999.66
2022-10-01T04:20:42.358Z,99996.94
2022-10-01T04:21:15.472Z,99993.81
2022-10-01T04:21:46.861Z,100002.38
2022-10-01T04:22:18.422Z,99998.88
2022-10-01T04:22:49.836Z,100008.22
2022-10-01T04:23:22.417Z,100000.81
2022-10-01T04:23:54.455Z,100005.84
2022-10-01T04:24:25.802Z,100007.03
2022-10-01T04:24:57.146Z,100002.34
2022-10-01T04:25:28.682Z,100016.75
2022-10-01T04:26:03.430Z,100012.84
2022-10-01T04:26:34.940Z,100015.97
2022-10-01T04:27:06.240Z,100011.28
2022-10-01T04:27:39.040Z,100007.03
2022-10-01T04:28:12.722Z,100018.31
2022-10-01T04:28:46.326Z,100019.88
2022-10-01T04:29:17.635Z,100014.41
2022-10-01T04:29:48.949Z,100024.16
2022-10-01T04:30:21.059Z,100022.59
2022-10-01T04:31:12.415Z,100015.22
2022-10-01T04:31:43.811Z,100017.50
2022-10-01T04:32:17.021Z,100018.69
2022-10-01T04:32:48.393Z,100015.56
2022-10-01T04:33:19.834Z,100015.53
2022-10-01T04:33:56.500Z,100025.31
2022-10-01T04:34:47.782Z,100028.81
2022-10-01T04:35:19.200Z,100017.09
2022-10-01T04:35:50.489Z,100019.81
2022-10-01T04:36:22.237Z,100022.94
2022-10-01T04:36:53.573Z,100025.28
2022-10-01T04:37:27.286Z,100028.78
2022-10-01T04:38:01.873Z,100022.56
2022-10-01T04:38:33.679Z,100022.56
2022-10-01T04:39:05.207Z,100023.75
2022-10-01T04:39:36.535Z,100037.00
2022-10-01T04:40:09.569Z,100030.34
2022-10-01T04:40:41.693Z,100037.75
2022-10-01T04:41:14.742Z,100037.75
2022-10-01T04:41:46.027Z,100043.59
2022-10-01T04:42:17.612Z,100037.75
2022-10-01T04:42:48.977Z,100038.94
2022-10-01T04:43:20.302Z,100046.69
2022-10-01T04:43:51.761Z,100041.66
2022-10-01T04:44:23.313Z,100037.75
2022-10-01T04:44:54.817Z,100050.59
2022-10-01T04:45:26.735Z,100038.53
2022-10-01T04:45:58.475Z,100053.31
2022-10-01T04:46:30.400Z,100053.72
2022-10-01T04:47:02.032Z,100050.97
2022-10-01T04:47:37.360Z,100052.16
2022-10-01T04:48:09.190Z,100052.94
2022-10-01T04:48:41.072Z,100059.16
2022-10-01T04:49:12.384Z,100053.31
2022-10-01T04:49:43.744Z,100056.44
2022-10-01T04:50:16.613Z,100060.72
2022-10-01T04:50:47.917Z,100057.22
2022-10-01T04:51:19.441Z,100041.63
2022-10-01T04:51:50.752Z,100056.44
2022-10-01T04:52:22.102Z,100054.84
2022-10-01T04:52:54.137Z,100056.81
2022-10-01T04:53:25.479Z,100055.66
2022-10-01T04:53:56.848Z,100056.81
2022-10-01T04:54:28.393Z,100048.25
2022-10-01T04:54:59.891Z,100059.13
2022-10-01T04:55:31.247Z,100051.75
2022-10-01T04:56:02.738Z,100054.84
2022-10-01T04:56:34.049Z,100059.94
2022-10-01T04:57:05.446Z,100058.38
2022-10-01T04:57:38.566Z,100060.28
2022-10-01T04:58:10.399Z,100053.63
2022-10-01T04:58:41.860Z,100059.88
2022-10-01T04:59:13.214Z,100059.09
2022-10-01T04:59:45.768Z,100067.66
2022-10-01T05:00:20.558Z,100068.06
2022-10-01T05:00:52.459Z,100065.34
2022-10-01T05:01:23.868Z,100077.41
2022-10-01T05:01:55.497Z,100069.22
2022-10-01T05:02:26.960Z,100075.44
2022-10-01T05:02:58.415Z,100070.78
2022-10-01T05:03:29.800Z,100076.22
2022-10-01T05:04:01.640Z,100077.41
2022-10-01T05:04:32.951Z,100075.84
2022-10-01T05:05:06.521Z,100072.69
2022-10-01T05:05:38.852Z,100071.94
2022-10-01T05:06:10.164Z,100077.78
2022-10-01T05:06:41.683Z,100083.63
2022-10-01T05:07:12.982Z,100073.09
2022-10-01T05:07:44.608Z,100073.88
2022-10-01T05:08:15.928Z,100076.22
2022-10-01T05:08:48.761Z,100080.13
2022-10-01T05:09:20.103Z,100082.06
2022-10-01T05:09:51.650Z,100080.91
2022-10-01T05:10:23.539Z,100077.00
2022-10-01T05:10:55.059Z,100082.06
2022-10-01T05:11:26.485Z,100082.06
2022-10-01T05:11:57.917Z,100087.50
2022-10-01T05:12:29.250Z,100092.16
2022-10-01T05:13:02.336Z,100080.09
2022-10-01T05:13:33.692Z,100083.22
2022-10-01T05:14:05.335Z,100091.00
2022-10-01T05:14:36.672Z,100081.66
2022-10-01T05:15:09.141Z,100092.94
2022-10-01T05:15:41.216Z,100091.00
2022-10-01T05:16:12.585Z,100091.00
2022-10-01T05:16:44.137Z,100088.66
2022-10-01T05:17:17.165Z,100087.88
2022-10-01T05:17:48.513Z,100091.34
2022-10-01T05:18:19.828Z,100094.06
2022-10-01T05:18:51.185Z,100085.94
2022-10-01T05:19:25.287Z,100087.50
2022-10-01T05:19:59.305Z,100096.41
2022-10-01T05:20:30.895Z,100084.72
2022-10-01T05:21:07.113Z,100095.63
2022-10-01T05:21:38.480Z,100092.94
2022-10-01T05:22:10.036Z,100096.81
2022-10-01T05:22:41.625Z,100094.84
2022-10-01T05:23:13.011Z,100098.78
2022-10-01T05:23:44.404Z,100099.53
2022-10-01T05:24:16.004Z,100100.75
2022-10-01T05:24:47.811Z,100097.22
2022-10-01T05:25:19.943Z,100099.13
2022-10-01T05:25:51.271Z,100098.00
2022-10-01T05:26:23.038Z,100106.16
2022-10-01T05:26:54.444Z,100107.31
2022-10-01T05:27:27.237Z,100100.75
2022-10-01T05:28:05.664Z,100103.03
2022-10-01T05:28:37.423Z,100111.63
2022-10-01T05:29:09.010Z,100111.63
2022-10-01T05:29:41.502Z,100113.16
2022-10-01T05:30:14.751Z,100119.41
2022-10-01T05:30:46.415Z,100105.78
2022-10-01T05:31:18.895Z,100101.53
2022-10-01T05:31:50.358Z,100112.78
2022-10-01T05:32:21.939Z,100119.03
2022-10-01T05:32:55.548Z,100111.22
2022-10-01T05:33:27.988Z,100113.94
2022-10-01T05:33:59.299Z,100114.34
2022-10-01T05:34:30.778Z,100119.41
2022-10-01T05:35:02.838Z,100118.63
2022-10-01T05:35:34.245Z,100117.84
2022-10-01T05:36:07.034Z,100117.06
2022-10-01T05:36:38.491Z,100118.63
2022-10-01T05:37:10.858Z,100119.41
2022-10-01T05:37:42.174Z,100122.13
2022-10-01T05:38:13.506Z,100119.06
2022-10-01T05:38:48.249Z,100113.19
2022-10-01T05:39:19.613Z,100120.19
2022-10-01T05:39:50.944Z,100126.03
2022-10-01T05:40:24.246Z,100125.25
2022-10-01T05:40:55.615Z,100119.06
2022-10-01T05:41:26.978Z,100124.09
2022-10-01T05:42:02.617Z,100119.44
2022-10-01T05:42:36.779Z,100129.56
2022-10-01T05:43:09.274Z,100132.28
2022-10-01T05:43:40.594Z,100136.97
2022-10-01T05:44:11.927Z,100132.69
2022-10-01T05:44:46.025Z,100132.31
2022-10-01T05:45:19.565Z,100129.22
2022-10-01T05:45:51.378Z,100138.53
2022-10-01T05:46:22.760Z,100123.75
2022-10-01T05:46:54.130Z,100133.91
2022-10-01T05:47:25.616Z,100136.63
2022-10-01T05:48:02.301Z,100138.19
2022-10-01T05:48:36.941Z,100139.75
2022-10-01T05:49:08.598Z,100141.28
2022-10-01T05:49:42.820Z,100144.00
2022-10-01T05:50:14.548Z,100133.13
2022-10-01T05:50:46.529Z,100137.00
2022-10-01T05:51:17.942Z,100141.28
2022-10-01T05:51:49.573Z,100146.72
2022-10-01T05:52:21.078Z,100138.53
2022-10-01T05:52:54.569Z,100132.34
2022-10-01T05:53:25.991Z,100136.25
2022-10-01T05:53:59.018Z,100130.41
2022-10-01T05:54:30.412Z,100137.44
2022-10-01T05:55:01.732Z,100148.72
2022-10-01T05:55:37.385Z,100136.28
2022-10-01T05:56:09.489Z,100143.28
2022-10-01T05:56:40.796Z,100144.44
2022-10-01T05:57:12.232Z,100144.44
2022-10-01T05:57:43.596Z,100141.34
2022-10-01T05:58:15.996Z,100149.91
2022-10-01T05:58:47.993Z,100141.34
2022-10-01T05:59:19.296Z,100143.28
2022-10-01T05:59:50.590Z,100152.63
2022-10-01T06:00:22.866Z,100158.50
2022-10-01T06:00:55.726Z,100147.56
2022-10-01T06:01:27.434Z,100145.63
2022-10-01T06:01:59.179Z,100153.03
2022-10-01T06:02:30.751Z,100152.66
2022-10-01T06:03:03.709Z,100147.97
2022-10-01T06:03:35.989Z,100144.47
2022-10-01T06:04:09.025Z,100151.84
2022-10-01T06:04:41.385Z,100156.91
2022-10-01T06:05:12.761Z,100159.28
2022-10-01T06:05:44.624Z,100162.78
2022-10-01T06:06:15.973Z,100162.38
2022-10-01T06:06:47.379Z,100156.91
2022-10-01T06:07:18.724Z,100159.66
2022-10-01T06:07:50.531Z,100151.84
2022-10-01T06:08:22.424Z,100154.19
2022-10-01T06:08:54.384Z,100161.22
2022-10-01T06:09:26.236Z,100161.22
2022-10-01T06:09:57.517Z,100163.16
2022-10-01T06:10:30.126Z,100161.59
2022-10-01T06:11:02.286Z,100157.69
2022-10-01T06:11:36.417Z,100160.44
2022-10-01T06:12:09.692Z,100160.81
2022-10-01T06:12:43.111Z,100154.59
2022-10-01T06:13:20.345Z,100158.50
2022-10-01T06:13:51.641Z,100150.69
2022-10-01T06:14:22.967Z,100158.88
2022-10-01T06:14:54.346Z,100153.44
2022-10-01T06:15:25.676Z,100163.19
2022-10-01T06:15:57.026Z,100160.84
2022-10-01T06:16:28.607Z,100165.13
2022-10-01T06:16:59.926Z,100163.56
2022-10-01T06:17:31.257Z,100158.88
2022-10-01T06:18:03.933Z,100167.47
2022-10-01T06:18:35.241Z,100162.00
2022-10-01T06:19:06.578Z,100165.53
2022-10-01T06:19:37.883Z,100163.19
2022-10-01T06:20:17.388Z,100165.91
2022-10-01T06:20:48.774Z,100171.34
2022-10-01T06:21:20.102Z,100162.00
2022-10-01T06:21:51.931Z,100167.44
2022-10-01T06:22:23.328Z,100163.94
2022-10-01T06:22:56.259Z,100161.22
2022-10-01T06:23:27.851Z,100168.22
2022-10-01T06:23:59.249Z,100169.00
2022-10-01T06:24:31.856Z,100165.88
2022-10-01T06:25:03.521Z,100172.84
2022-10-01T06:25:35.000Z,100170.13
2022-10-01T06:26:06.568Z,100172.84
2022-10-01T06:26:37.973Z,100165.50
2022-10-01T06:27:10.325Z,100170.53
2022-10-01T06:27:41.768Z,100160.81
2022-10-01T06:28:14.485Z,100172.09
2022-10-01T06:28:48.692Z,100165.84
2022-10-01T06:29:20.044Z,100161.94
2022-10-01T06:29:51.344Z,100169.34
2022-10-01T06:30:22.797Z,100163.88
2022-10-01T06:30:54.105Z,100171.69
2022-10-01T06:31:25.438Z,100171.69
2022-10-01T06:31:57.337Z,100170.50
2022-10-01T06:32:31.636Z,100161.59